Nyk Olympus — 3EOS7 — position and weather

sailwx.info

Track history (hours):
 
Tides and Currents Weather Stations Pressure Air Temp Water Temp Dewpoint Dewpoint Depression Visibility Wind Speed Wind Dir Waves Ship Positions

Nyk Olympus

Last reported at 2014-Dec-20 20:09 UTC. Time now 2014-Dec-21 04:04 UTC.
Position N 34°09' E 134°58'.

Length 335 m; draft 10.8 m.

Type: Ship. MMSI: 372478000.

Date/timePositionNaut miles runAvg speedWind from/ knotsBaromVisibWave heightAir tempDewpointWater temp
2014-Dec-20 20:09N 34°09' E 134°58'712.5
2014-Dec-20 19:33N 34°17' E 134°58'1818.0
2014-Dec-20 18:33N 34°31' E 135°12'1111.0
2014-Dec-20 17:33N 34°41' E 135°18'0 0.3
2014-Dec-20 16:32N 34°41' E 135°17'0 0.0
2014-Dec-20 15:29N 34°41' E 135°17'0 0.0
2014-Dec-20 14:32N 34°41' E 135°17'0 0.0
2014-Dec-20 13:32N 34°41' E 135°17'0 0.0
2014-Dec-20 12:32N 34°41' E 135°17'0 0.0
2014-Dec-20 11:32N 34°41' E 135°17'0 0.0
2014-Dec-20 10:32N 34°41' E 135°17'0 0.0
2014-Dec-20 09:32N 34°41' E 135°17'0 0.0
2014-Dec-20 08:32N 34°41' E 135°17'0 0.0
2014-Dec-20 07:32N 34°41' E 135°17'0 0.0
2014-Dec-20 06:32N 34°41' E 135°17'0 0.0
2014-Dec-20 05:32N 34°41' E 135°17'0 0.0
2014-Dec-20 04:29N 34°41' E 135°17'0 0.0
2014-Dec-20 03:32N 34°41' E 135°17'0 0.0
2014-Dec-20 02:32N 34°41' E 135°17'0 0.0
2014-Dec-20 01:32N 34°41' E 135°17'0 0.0
2014-Dec-20 00:32N 34°41' E 135°17'0 0.0
2014-Dec-19 23:32N 34°41' E 135°17'1 0.9
2014-Dec-19 22:33N 34°41' E 135°18'1010.1
2014-Dec-19 21:33N 34°31' E 135°13'1615.5
2014-Dec-19 20:33N 34°19' E 135°01'1313.5
2014-Dec-19 19:34N 34°06' E 134°59'1212.3
2014-Dec-19 18:33N 33°54' E 134°60'  
2014-Dec-16 23:33N 23°55' E 118°23'1514.5
2014-Dec-16 22:29N 23°47' E 118°08'1915.3
2014-Dec-16 21:15N 23°36' E 117°52'22014.0
2014-Dec-16 05:33N 22°10' E 114°12'10 9.7
2014-Dec-16 04:33N 22°18' E 114°06'2 2.0
2014-Dec-16 03:25N 22°20' E 114°08'0 0.0
2014-Dec-16 02:25N 22°20' E 114°08'0 0.0
2014-Dec-16 01:12N 22°20' E 114°08'0 0.0
2014-Dec-15 23:10N 22°20' E 114°08'0 0.0
2014-Dec-15 21:04N 22°20' E 114°08'0 0.0
2014-Dec-15 20:28N 22°20' E 114°08'0 0.0
2014-Dec-15 18:28N 22°20' E 114°08'0 0.0
2014-Dec-15 17:28N 22°20' E 114°08'0 0.0
2014-Dec-15 16:28N 22°20' E 114°08'0 0.0
2014-Dec-15 15:16N 22°20' E 114°08'0 0.1
2014-Dec-15 14:16N 22°20' E 114°08'0 0.0
2014-Dec-15 13:31N 22°20' E 114°08'0 0.0
2014-Dec-15 12:28N 22°20' E 114°08'0 0.0
2014-Dec-15 11:28N 22°20' E 114°08'0 0.0
2014-Dec-15 10:28N 22°20' E 114°08'0 0.0
2014-Dec-15 09:28N 22°20' E 114°08'0 0.0
2014-Dec-15 08:31N 22°20' E 114°08'0 0.1
2014-Dec-15 07:28N 22°20' E 114°08'2 2.6
2014-Dec-15 06:33N 22°18' E 114°06'1211.4
2014-Dec-15 05:30N 22°09' E 114°15'  
2014-Dec-11 21:14N 01°16' E 104°11'1116.7
2014-Dec-11 20:33N 01°15' E 103°60'1211.6
2014-Dec-11 19:33N 01°12' E 103°48'4 3.9
2014-Dec-11 18:32N 01°16' E 103°47'0 0.0
2014-Dec-11 17:29N 01°16' E 103°47'0 0.0
2014-Dec-11 16:32N 01°16' E 103°47'0 0.0
2014-Dec-11 15:32N 01°16' E 103°47'0 0.0
2014-Dec-11 14:29N 01°16' E 103°47'0 0.0
2014-Dec-11 13:23N 01°16' E 103°47'0 0.0
2014-Dec-11 12:29N 01°16' E 103°47'0 0.0
2014-Dec-11 11:32N 01°16' E 103°47'0 0.0
2014-Dec-11 10:32N 01°16' E 103°47'0 0.0
2014-Dec-11 09:20N 01°16' E 103°47'0 0.0
2014-Dec-11 08:29N 01°16' E 103°47'0 0.0
2014-Dec-11 07:29N 01°16' E 103°47'0 0.0
2014-Dec-11 06:32N 01°16' E 103°47'0 0.0
2014-Dec-11 05:08N 01°16' E 103°47'0 0.0
2014-Dec-11 04:32N 01°16' E 103°47'0 0.0
2014-Dec-11 03:29N 01°16' E 103°47'0 0.0
2014-Dec-11 02:32N 01°16' E 103°47'0 0.0
2014-Dec-11 01:32N 01°16' E 103°47'0 0.0
2014-Dec-11 00:32N 01°16' E 103°47'0 0.0
2014-Dec-10 23:32N 01°16' E 103°47'0 0.0
2014-Dec-10 22:29N 01°16' E 103°47'0 0.0
2014-Dec-10 21:32N 01°16' E 103°47'0 0.0
2014-Dec-10 20:26N 01°16' E 103°47'  
Track history (hours):
 
Tides and Currents Weather Stations Pressure Air Temp Water Temp Dewpoint Dewpoint Depression Visibility Wind Speed Wind Dir Waves Ship Positions

Nyk Olympus

Last reported at 2014-Dec-20 20:09 UTC. Time now 2014-Dec-21 04:04 UTC.
Position N 34°09' E 134°58'.

Length 335 m; draft 10.8 m.

Type: Ship. MMSI: 372478000.

Date/timePositionNaut miles runAvg speedWind from/ knotsBaromVisibWave heightAir tempDewpointWater temp
2014-Dec-20 20:09N 34°09' E 134°58'712.5
2014-Dec-20 19:33N 34°17' E 134°58'1818.0
2014-Dec-20 18:33N 34°31' E 135°12'1111.0
2014-Dec-20 17:33N 34°41' E 135°18'0 0.3
2014-Dec-20 16:32N 34°41' E 135°17'0 0.0
2014-Dec-20 15:29N 34°41' E 135°17'0 0.0
2014-Dec-20 14:32N 34°41' E 135°17'0 0.0
2014-Dec-20 13:32N 34°41' E 135°17'0 0.0
2014-Dec-20 12:32N 34°41' E 135°17'0 0.0
2014-Dec-20 11:32N 34°41' E 135°17'0 0.0
2014-Dec-20 10:32N 34°41' E 135°17'0 0.0
2014-Dec-20 09:32N 34°41' E 135°17'0 0.0
2014-Dec-20 08:32N 34°41' E 135°17'0 0.0
2014-Dec-20 07:32N 34°41' E 135°17'0 0.0
2014-Dec-20 06:32N 34°41' E 135°17'0 0.0
2014-Dec-20 05:32N 34°41' E 135°17'0 0.0
2014-Dec-20 04:29N 34°41' E 135°17'0 0.0
2014-Dec-20 03:32N 34°41' E 135°17'0 0.0
2014-Dec-20 02:32N 34°41' E 135°17'0 0.0
2014-Dec-20 01:32N 34°41' E 135°17'0 0.0
2014-Dec-20 00:32N 34°41' E 135°17'0 0.0
2014-Dec-19 23:32N 34°41' E 135°17'1 0.9
2014-Dec-19 22:33N 34°41' E 135°18'1010.1
2014-Dec-19 21:33N 34°31' E 135°13'1615.5
2014-Dec-19 20:33N 34°19' E 135°01'1313.5
2014-Dec-19 19:34N 34°06' E 134°59'1212.3
2014-Dec-19 18:33N 33°54' E 134°60'  
2014-Dec-16 23:33N 23°55' E 118°23'1514.5
2014-Dec-16 22:29N 23°47' E 118°08'1915.3
2014-Dec-16 21:15N 23°36' E 117°52'22014.0
2014-Dec-16 05:33N 22°10' E 114°12'10 9.7
2014-Dec-16 04:33N 22°18' E 114°06'2 2.0
2014-Dec-16 03:25N 22°20' E 114°08'0 0.0
2014-Dec-16 02:25N 22°20' E 114°08'0 0.0
2014-Dec-16 01:12N 22°20' E 114°08'0 0.0
2014-Dec-15 23:10N 22°20' E 114°08'0 0.0
2014-Dec-15 21:04N 22°20' E 114°08'0 0.0
2014-Dec-15 20:28N 22°20' E 114°08'0 0.0
2014-Dec-15 18:28N 22°20' E 114°08'0 0.0
2014-Dec-15 17:28N 22°20' E 114°08'0 0.0
2014-Dec-15 16:28N 22°20' E 114°08'0 0.0
2014-Dec-15 15:16N 22°20' E 114°08'0 0.1
2014-Dec-15 14:16N 22°20' E 114°08'0 0.0
2014-Dec-15 13:31N 22°20' E 114°08'0 0.0
2014-Dec-15 12:28N 22°20' E 114°08'0 0.0
2014-Dec-15 11:28N 22°20' E 114°08'0 0.0
2014-Dec-15 10:28N 22°20' E 114°08'0 0.0
2014-Dec-15 09:28N 22°20' E 114°08'0 0.0
2014-Dec-15 08:31N 22°20' E 114°08'0 0.1
2014-Dec-15 07:28N 22°20' E 114°08'2 2.6
2014-Dec-15 06:33N 22°18' E 114°06'1211.4
2014-Dec-15 05:30N 22°09' E 114°15'  
2014-Dec-11 21:14N 01°16' E 104°11'1116.7
2014-Dec-11 20:33N 01°15' E 103°60'1211.6
2014-Dec-11 19:33N 01°12' E 103°48'4 3.9
2014-Dec-11 18:32N 01°16' E 103°47'0 0.0
2014-Dec-11 17:29N 01°16' E 103°47'0 0.0
2014-Dec-11 16:32N 01°16' E 103°47'0 0.0
2014-Dec-11 15:32N 01°16' E 103°47'0 0.0
2014-Dec-11 14:29N 01°16' E 103°47'0 0.0
2014-Dec-11 13:23N 01°16' E 103°47'0 0.0
2014-Dec-11 12:29N 01°16' E 103°47'0 0.0
2014-Dec-11 11:32N 01°16' E 103°47'0 0.0
2014-Dec-11 10:32N 01°16' E 103°47'0 0.0
2014-Dec-11 09:20N 01°16' E 103°47'0 0.0
2014-Dec-11 08:29N 01°16' E 103°47'0 0.0
2014-Dec-11 07:29N 01°16' E 103°47'0 0.0
2014-Dec-11 06:32N 01°16' E 103°47'0 0.0
2014-Dec-11 05:08N 01°16' E 103°47'0 0.0
2014-Dec-11 04:32N 01°16' E 103°47'0 0.0
2014-Dec-11 03:29N 01°16' E 103°47'0 0.0
2014-Dec-11 02:32N 01°16' E 103°47'0 0.0
2014-Dec-11 01:32N 01°16' E 103°47'0 0.0
2014-Dec-11 00:32N 01°16' E 103°47'0 0.0
2014-Dec-10 23:32N 01°16' E 103°47'0 0.0
2014-Dec-10 22:29N 01°16' E 103°47'0 0.0
2014-Dec-10 21:32N 01°16' E 103°47'0 0.0
2014-Dec-10 20:26N 01°16' E 103°47'  

Dump ship's entire track history